Time,TemperatureF,DewpointF,PressureIn,WindDirection,WindDirectionDegrees,WindSpeedMPH,WindSpeedGustMPH,Humidity,HourlyPrecipIn,Conditions,Clouds,dailyrainin,SoftwareType,DateUTC
2013-06-06 00:01:00,64.1,58.5,30.04,WSW,239,0.0,0.0,82,0.00,RA,,0.00,WeatherDisplay:10.37,2013-06-06 04:01:00,
2013-06-06 00:02:00,64.0,58.4,30.04,WSW,239,0.0,0.0,82,0.00,RA,,0.00,WeatherDisplay:10.37,2013-06-06 04:02:00,
2013-06-06 00:07:00,64.0,58.4,30.03,SSE,155,3.5,3.5,82,0.00,RA,,0.00,WeatherDisplay:10.37,2013-06-06 04:07:00,
2013-06-06 00:12:00,64.3,58.7,30.04,SSW,198,1.1,1.1,82,0.00,OVC,,0.00,WeatherDisplay:10.37,2013-06-06 04:12:00,
2013-06-06 00:17:00,64.0,58.4,30.04,South,182,0.0,0.0,82,0.00,OVC,,0.00,WeatherDisplay:10.37,2013-06-06 04:17:00,
2013-06-06 00:22:00,64.1,58.1,30.04,SW,226,1.2,1.2,81,0.00,OVC,,0.00,WeatherDisplay:10.37,2013-06-06 04:22:00,
2013-06-06 00:27:00,64.0,58.1,30.04,SSW,205,0.0,0.1,81,0.00,OVC,,0.00,WeatherDisplay:10.37,2013-06-06 04:27:00,
2013-06-06 00:32:00,63.9,58.0,30.04,South,182,0.0,0.0,81,0.00,BKN,,0.00,WeatherDisplay:10.37,2013-06-06 04:32:00,
2013-06-06 00:37:00,63.9,58.0,30.04,South,182,0.0,0.0,81,0.00,BKN,,0.00,WeatherDisplay:10.37,2013-06-06 04:37:00,
2013-06-06 00:42:00,63.7,58.1,30.04,South,182,0.0,0.0,82,0.00,BKN,,0.00,WeatherDisplay:10.37,2013-06-06 04:42:00,
2013-06-06 00:47:00,63.2,57.6,30.04,South,182,0.0,0.0,82,0.00,BKN,,0.00,WeatherDisplay:10.37,2013-06-06 04:47:00,
2013-06-06 00:52:00,63.1,58.2,30.04,NE,44,1.1,1.1,84,0.00,CLR,,0.00,WeatherDisplay:10.37,2013-06-06 04:52:00,
2013-06-06 00:57:00,62.9,58.3,30.04,NE,44,0.0,0.0,85,0.00,CLR,,0.00,WeatherDisplay:10.37,2013-06-06 04:57:00,
2013-06-06 01:02:00,62.8,58.5,30.03,NE,44,0.0,0.0,86,0.00,CLR,,0.00,WeatherDisplay:10.37,2013-06-06 05:02:00,
2013-06-06 01:07:00,62.7,58.8,30.04,NE,44,0.0,0.0,87,0.00,CLR,,0.00,WeatherDisplay:10.37,2013-06-06 05:07:00,
2013-06-06 01:12:00,62.6,58.7,30.04,NE,44,0.0,0.0,87,0.00,CLR,,0.00,WeatherDisplay:10.37,2013-06-06 05:12:00,
2013-06-06 01:17:00,62.7,58.5,30.03,South,179,0.0,0.0,86,0.00,CLR,,0.00,WeatherDisplay:10.37,2013-06-06 05:17:00,
2013-06-06 01:22:00,62.7,58.5,30.03,SSW,203,1.1,1.1,86,0.00,CLR,,0.00,WeatherDisplay:10.37,2013-06-06 05:22:00,
2013-06-06 01:27:00,62.7,58.1,30.04,ESE,104,0.0,0.0,85,0.00,CLR,,0.00,WeatherDisplay:10.37,2013-06-06 05:27:00,
2013-06-06 01:32:00,62.8,58.2,30.04,ESE,104,0.0,0.0,85,0.00,CLR,,0.00,WeatherDisplay:10.37,2013-06-06 05:32:00,
2013-06-06 01:37:00,62.7,58.1,30.03,ESE,104,0.0,0.0,85,0.00,CLR,,0.00,WeatherDisplay:10.37,2013-06-06 05:37:00,
2013-06-06 01:42:00,62.6,58.0,30.04,ESE,104,0.0,0.0,85,0.00,CLR,,0.00,WeatherDisplay:10.37,2013-06-06 05:42:00,
2013-06-06 01:47:00,62.6,58.0,30.04,ESE,104,0.0,0.0,85,0.00,CLR,,0.00,WeatherDisplay:10.37,2013-06-06 05:47:00,
2013-06-06 01:52:00,62.3,58.1,30.04,ESE,104,0.0,0.0,86,0.00,CLR,,0.00,WeatherDisplay:10.37,2013-06-06 05:52:00,
2013-06-06 01:57:00,62.0,57.8,30.04,WSW,241,0.0,0.0,86,0.00,CLR,,0.00,WeatherDisplay:10.37,2013-06-06 05:57:00,
2013-06-06 02:02:00,61.7,57.8,30.04,WSW,241,0.0,0.0,87,0.00,CLR,,0.00,WeatherDisplay:10.37,2013-06-06 06:02:00,
2013-06-06 02:07:00,61.5,57.6,30.03,WSW,241,0.0,0.0,87,0.00,CLR,,0.00,WeatherDisplay:10.37,2013-06-06 06:07:00,
2013-06-06 02:12:00,61.5,57.9,30.03,WSW,241,0.0,0.0,88,0.00,CLR,,0.00,WeatherDisplay:10.37,2013-06-06 06:12:00,
2013-06-06 02:17:00,61.2,57.6,30.03,WSW,241,0.0,0.0,88,0.00,CLR,,0.00,WeatherDisplay:10.37,2013-06-06 06:17:00,
2013-06-06 02:22:00,61.3,58.3,30.03,SW,233,5.1,5.1,90,0.00,CLR,,0.00,WeatherDisplay:10.37,2013-06-06 06:22:00,
2013-06-06 02:27:00,61.7,58.1,30.03,SSW,208,4.6,4.6,88,0.00,CLR,,0.00,WeatherDisplay:10.37,2013-06-06 06:27:00,
2013-06-06 02:32:00,61.9,58.0,30.03,WSW,247,2.3,2.3,87,0.00,CLR,,0.00,WeatherDisplay:10.37,2013-06-06 06:32:00,
2013-06-06 02:37:00,62.0,58.1,30.03,SSW,205,0.0,0.0,87,0.00,CLR,,0.00,WeatherDisplay:10.37,2013-06-06 06:37:00,
2013-06-06 02:42:00,61.8,57.9,30.03,SW,223,4.6,4.6,87,0.00,CLR,,0.00,WeatherDisplay:10.37,2013-06-06 06:42:00,
2013-06-06 02:47:00,61.6,57.7,30.03,SW,216,2.3,2.3,87,0.00,CLR,,0.00,WeatherDisplay:10.37,2013-06-06 06:47:00,
2013-06-06 02:52:00,61.6,57.7,30.03,SSW,193,2.3,2.3,87,0.00,CLR,,0.00,WeatherDisplay:10.37,2013-06-06 06:52:00,
2013-06-06 02:57:00,61.6,58.0,30.03,SSW,212,5.9,5.9,88,0.00,CLR,,0.00,WeatherDisplay:10.37,2013-06-06 06:57:00,
2013-06-06 03:02:00,61.6,57.7,30.03,South,172,2.3,2.3,87,0.00,CLR,,0.00,WeatherDisplay:10.37,2013-06-06 07:02:00,
2013-06-06 03:07:00,61.6,57.7,30.03,SSW,208,3.2,3.2,87,0.00,CLR,,0.00,WeatherDisplay:10.37,2013-06-06 07:07:00,
2013-06-06 03:12:00,61.4,57.5,30.03,SW,217,4.9,4.9,87,0.00,CLR,,0.00,WeatherDisplay:10.37,2013-06-06 07:12:00,
2013-06-06 03:17:00,61.6,57.4,30.03,SW,223,3.5,3.5,86,0.00,CLR,,0.00,WeatherDisplay:10.37,2013-06-06 07:17:00,
2013-06-06 03:22:00,61.9,57.7,30.03,South,189,3.5,3.5,86,0.00,BKN,,0.00,WeatherDisplay:10.37,2013-06-06 07:22:00,
2013-06-06 03:27:00,61.9,57.7,30.03,SW,224,3.5,3.5,86,0.00,BKN,,0.00,WeatherDisplay:10.37,2013-06-06 07:27:00,
2013-06-06 03:32:00,61.8,57.6,30.03,SSW,212,1.1,0.0,86,0.00,BKN,,0.00,WeatherDisplay:10.37,2013-06-06 07:32:00,
2013-06-06 03:37:00,61.9,57.7,30.03,SSW,210,3.5,3.5,86,0.00,BKN,,0.00,WeatherDisplay:10.37,2013-06-06 07:37:00,
2013-06-06 03:42:00,61.9,58.0,30.02,SSW,200,3.2,3.2,87,0.00,BKN,,0.00,WeatherDisplay:10.37,2013-06-06 07:42:00,
2013-06-06 03:47:00,61.7,57.8,30.02,SSW,210,3.5,3.5,87,0.00,BKN,,0.00,WeatherDisplay:10.37,2013-06-06 07:47:00,
2013-06-06 03:52:00,61.7,58.1,30.02,SSW,209,3.5,3.5,88,0.00,BKN,,0.00,WeatherDisplay:10.37,2013-06-06 07:52:00,
2013-06-06 03:57:00,61.4,57.8,30.02,SW,223,2.3,2.3,88,0.00,BKN,,0.00,WeatherDisplay:10.37,2013-06-06 07:57:00,
2013-06-06 04:02:00,61.4,57.8,30.03,SSW,212,2.7,2.7,88,0.00,BKN,,0.00,WeatherDisplay:10.37,2013-06-06 08:02:00,
2013-06-06 04:07:00,61.3,58.0,30.03,SSW,209,2.3,2.3,89,0.00,BKN,,0.00,WeatherDisplay:10.37,2013-06-06 08:07:00,
2013-06-06 04:12:00,61.1,57.8,30.03,SSW,206,2.3,2.3,89,0.00,BKN,,0.00,WeatherDisplay:10.37,2013-06-06 08:12:00,
2013-06-06 04:17:00,61.2,57.9,30.03,SSW,198,0.0,0.0,89,0.00,BKN,,0.00,WeatherDisplay:10.37,2013-06-06 08:17:00,
2013-06-06 04:22:00,61.0,58.0,30.02,SSW,208,0.0,0.0,90,0.00,BKN,,0.00,WeatherDisplay:10.37,2013-06-06 08:22:00,
2013-06-06 04:27:00,61.0,58.0,30.02,SSW,208,0.0,0.0,90,0.00,BKN,,0.00,WeatherDisplay:10.37,2013-06-06 08:27:00,
2013-06-06 04:32:00,60.8,57.8,30.02,SSW,208,0.0,0.0,90,0.00,BKN,,0.00,WeatherDisplay:10.37,2013-06-06 08:32:00,
2013-06-06 04:37:00,60.7,58.1,30.02,SSW,208,0.0,0.0,91,0.00,BKN,,0.00,WeatherDisplay:10.37,2013-06-06 08:37:00,
2013-06-06 04:42:00,60.5,58.2,30.02,SE,138,0.0,0.0,92,0.00,BKN,,0.00,WeatherDisplay:10.37,2013-06-06 08:42:00,
2013-06-06 04:47:00,60.5,58.5,30.02,SE,138,0.0,0.0,93,0.00,BKN,,0.00,WeatherDisplay:10.37,2013-06-06 08:47:00,
2013-06-06 04:52:00,60.4,58.4,30.02,SE,138,0.0,0.0,93,0.00,SCT,,0.00,WeatherDisplay:10.37,2013-06-06 08:52:00,
2013-06-06 04:57:00,60.0,58.6,30.02,SE,138,0.0,0.0,95,0.00,SCT,,0.00,WeatherDisplay:10.37,2013-06-06 08:57:00,
2013-06-06 05:02:00,59.8,58.7,30.02,SE,138,0.0,0.0,96,0.00,SCT,,0.00,WeatherDisplay:10.37,2013-06-06 09:02:00,
2013-06-06 05:07:00,59.8,58.7,30.02,SE,138,0.0,0.0,96,0.00,SCT,,0.00,WeatherDisplay:10.37,2013-06-06 09:07:00,
2013-06-06 05:12:00,59.7,58.6,30.02,SE,138,0.0,0.0,96,0.00,CLR,,0.00,WeatherDisplay:10.37,2013-06-06 09:12:00,
2013-06-06 05:17:00,59.5,58.4,30.02,SE,138,0.0,0.0,96,0.00,CLR,,0.00,WeatherDisplay:10.37,2013-06-06 09:17:00,
2013-06-06 05:22:00,59.3,58.4,30.02,SE,138,0.0,0.0,97,0.00,CLR,,0.00,WeatherDisplay:10.37,2013-06-06 09:22:00,
2013-06-06 05:27:00,59.1,58.5,30.02,SE,138,0.0,0.0,98,0.00,CLR,,0.00,WeatherDisplay:10.37,2013-06-06 09:27:00,
2013-06-06 05:32:00,59.0,58.4,30.02,SE,138,0.0,0.0,98,0.00,CLR,,0.00,WeatherDisplay:10.37,2013-06-06 09:32:00,
2013-06-06 05:37:00,59.1,58.8,30.02,SE,138,0.0,0.0,99,0.00,CLR,,0.00,WeatherDisplay:10.37,2013-06-06 09:37:00,
2013-06-06 05:42:00,59.1,58.8,30.02,SE,138,0.0,0.0,99,0.00,CLR,,0.00,WeatherDisplay:10.37,2013-06-06 09:42:00,
2013-06-06 05:47:00,59.1,58.8,30.02,SE,138,0.0,0.0,99,0.00,CLR,,0.00,WeatherDisplay:10.37,2013-06-06 09:47:00,
2013-06-06 05:52:00,59.0,58.7,30.02,SE,138,0.0,0.0,99,0.00,CLR,,0.00,WeatherDisplay:10.37,2013-06-06 09:52:00,
2013-06-06 05:57:00,59.0,58.7,30.02,SE,138,0.0,0.0,99,0.00,CLR,,0.00,WeatherDisplay:10.37,2013-06-06 09:57:00,
2013-06-06 06:02:00,58.9,58.6,30.02,SE,138,0.0,0.0,99,0.00,BKN,,0.00,WeatherDisplay:10.37,2013-06-06 10:02:00,
2013-06-06 06:07:00,58.9,58.9,30.02,SE,138,0.0,0.0,100,0.00,BKN,,0.00,WeatherDisplay:10.37,2013-06-06 10:07:00,
2013-06-06 06:12:00,58.9,58.9,30.02,SE,138,0.0,0.0,100,0.00,OVC,,0.00,WeatherDisplay:10.37,2013-06-06 10:12:00,
2013-06-06 06:17:00,58.9,58.9,30.02,SE,138,0.0,0.0,100,0.00,OVC,,0.00,WeatherDisplay:10.37,2013-06-06 10:17:00,
2013-06-06 06:22:00,58.9,58.9,30.02,SE,138,0.0,0.0,100,0.00,OVC,,0.00,WeatherDisplay:10.37,2013-06-06 10:22:00,
2013-06-06 06:27:00,59.0,59.0,30.02,SE,138,0.0,0.0,100,0.00,OVC,,0.00,WeatherDisplay:10.37,2013-06-06 10:27:00,
2013-06-06 06:32:00,59.2,59.2,30.02,SE,138,0.0,0.0,100,0.00,OVC,,0.00,WeatherDisplay:10.37,2013-06-06 10:32:00,
2013-06-06 06:37:00,59.3,59.3,30.01,SE,138,0.0,0.0,100,0.00,OVC,,0.00,WeatherDisplay:10.37,2013-06-06 10:37:00,
2013-06-06 06:42:00,59.5,59.5,30.01,SE,138,0.0,0.0,100,0.00,OVC,,0.00,WeatherDisplay:10.37,2013-06-06 10:42:00,
2013-06-06 06:47:00,59.8,59.8,30.01,SE,138,0.0,0.0,100,0.00,OVC,,0.00,WeatherDisplay:10.37,2013-06-06 10:47:00,
2013-06-06 06:52:00,59.9,59.6,30.01,SE,138,0.0,0.0,99,0.00,BKN,,0.00,WeatherDisplay:10.37,2013-06-06 10:52:00,
2013-06-06 06:57:00,59.8,59.5,30.01,SE,138,0.0,0.0,99,0.00,BKN,,0.00,WeatherDisplay:10.37,2013-06-06 10:57:00,
2013-06-06 07:02:00,59.9,59.6,30.02,SE,138,0.0,0.0,99,0.00,BKN,,0.00,WeatherDisplay:10.37,2013-06-06 11:02:00,
2013-06-06 07:07:00,59.9,59.6,30.02,SE,138,0.0,0.0,99,0.00,BKN,,0.00,WeatherDisplay:10.37,2013-06-06 11:07:00,
2013-06-06 07:12:00,59.9,59.6,30.02,SE,138,0.0,0.0,99,0.00,BKN,,0.00,WeatherDisplay:10.37,2013-06-06 11:12:00,
2013-06-06 07:17:00,60.0,59.7,30.02,SE,138,0.0,0.0,99,0.00,BKN,,0.00,WeatherDisplay:10.37,2013-06-06 11:17:00,
2013-06-06 07:22:00,59.9,59.3,30.02,SE,138,0.0,0.0,98,0.00,BKN,,0.00,WeatherDisplay:10.37,2013-06-06 11:22:00,
2013-06-06 07:27:00,60.1,59.5,30.02,SE,138,0.0,0.0,98,0.00,BKN,,0.00,WeatherDisplay:10.37,2013-06-06 11:27:00,
2013-06-06 07:32:00,60.2,59.6,30.02,SSE,152,1.1,0.0,98,0.00,BKN,,0.00,WeatherDisplay:10.37,2013-06-06 11:32:00,
2013-06-06 07:37:00,60.4,59.8,30.02,SSE,152,0.0,0.0,98,0.00,BKN,,0.00,WeatherDisplay:10.37,2013-06-06 11:37:00,
2013-06-06 07:42:00,60.5,59.6,30.02,SSE,152,0.0,0.0,97,0.00,BKN,,0.00,WeatherDisplay:10.37,2013-06-06 11:42:00,
2013-06-06 07:47:00,60.4,59.5,30.02,SSE,152,0.0,0.0,97,0.00,BKN,,0.00,WeatherDisplay:10.37,2013-06-06 11:47:00,
2013-06-06 07:52:00,60.5,59.6,30.02,SSE,152,0.0,0.0,97,0.00,BKN,,0.00,WeatherDisplay:10.37,2013-06-06 11:52:00,
2013-06-06 07:57:00,60.6,59.7,30.02,SSE,152,0.0,0.0,97,0.00,BKN,,0.00,WeatherDisplay:10.37,2013-06-06 11:57:00,
2013-06-06 08:02:00,60.6,59.7,30.02,SSE,152,0.0,0.0,97,0.00,OVC,,0.00,WeatherDisplay:10.37,2013-06-06 12:02:00,
2013-06-06 08:07:00,60.6,59.7,30.02,SSE,152,0.0,0.0,97,0.00,OVC,,0.00,WeatherDisplay:10.37,2013-06-06 12:07:00,
2013-06-06 08:12:00,60.8,59.7,30.01,SSE,152,0.0,0.0,96,0.00,OVC,,0.00,WeatherDisplay:10.37,2013-06-06 12:12:00,
2013-06-06 08:17:00,60.8,59.7,30.01,SSE,152,0.0,0.0,96,0.00,OVC,,0.00,WeatherDisplay:10.37,2013-06-06 12:17:00,
2013-06-06 08:22:00,61.0,59.9,30.02,SSE,152,0.0,0.0,96,0.00,OVC,,0.00,WeatherDisplay:10.37,2013-06-06 12:22:00,
2013-06-06 08:27:00,61.0,59.9,30.02,SSE,152,0.0,0.0,96,0.00,OVC,,0.00,WeatherDisplay:10.37,2013-06-06 12:27:00,
2013-06-06 08:32:00,61.1,60.0,30.02,SSE,152,0.0,0.0,96,0.00,OVC,,0.00,WeatherDisplay:10.37,2013-06-06 12:32:00,
2013-06-06 08:37:00,61.0,59.9,30.02,SSE,152,0.0,0.0,96,0.00,OVC,,0.00,WeatherDisplay:10.37,2013-06-06 12:37:00,
2013-06-06 08:42:00,60.9,59.8,30.02,SSE,152,0.0,0.0,96,0.00,OVC,,0.00,WeatherDisplay:10.37,2013-06-06 12:42:00,
2013-06-06 08:47:00,61.3,60.2,30.01,SE,137,0.0,0.4,96,0.00,OVC,,0.00,WeatherDisplay:10.37,2013-06-06 12:47:00,
2013-06-06 08:52:00,61.4,60.2,30.01,ESE,109,0.0,0.0,96,0.00,OVC,,0.00,WeatherDisplay:10.37,2013-06-06 12:52:00,
2013-06-06 08:57:00,61.6,60.4,30.01,ESE,109,0.0,0.0,96,0.00,OVC,,0.00,WeatherDisplay:10.37,2013-06-06 12:57:00,
2013-06-06 09:02:00,61.6,60.4,30.01,SSW,202,2.2,2.4,96,0.00,OVC,,0.00,WeatherDisplay:10.37,2013-06-06 13:02:00,
2013-06-06 09:07:00,61.6,60.4,30.01,ESE,114,3.5,0.0,96,0.00,OVC,,0.00,WeatherDisplay:10.37,2013-06-06 13:07:00,
2013-06-06 09:12:00,61.6,60.4,30.01,South,174,5.8,5.8,96,0.00,OVC,,0.00,WeatherDisplay:10.37,2013-06-06 13:12:00,
2013-06-06 09:17:00,61.7,60.5,30.01,South,175,4.6,4.6,96,0.00,OVC,,0.00,WeatherDisplay:10.37,2013-06-06 13:17:00,
2013-06-06 09:22:00,61.9,60.7,30.00,SW,217,6.6,6.6,96,0.00,OVC,,0.00,WeatherDisplay:10.37,2013-06-06 13:22:00,
2013-06-06 09:27:00,62.0,60.8,30.00,SSW,208,5.8,5.8,96,0.00,OVC,,0.00,WeatherDisplay:10.37,2013-06-06 13:27:00,
2013-06-06 09:32:00,62.0,60.8,30.00,SSE,162,0.0,0.0,96,0.00,OVC,,0.00,WeatherDisplay:10.37,2013-06-06 13:32:00,
2013-06-06 09:37:00,62.1,60.9,30.00,SSW,210,4.6,4.6,96,0.00,OVC,,0.00,WeatherDisplay:10.37,2013-06-06 13:37:00,
2013-06-06 09:42:00,62.2,61.0,30.00,SW,217,4.6,4.6,96,0.00,OVC,,0.00,WeatherDisplay:10.37,2013-06-06 13:42:00,
2013-06-06 09:47:00,62.3,61.4,30.00,South,178,2.3,2.3,97,0.00,OVC,,0.00,WeatherDisplay:10.37,2013-06-06 13:47:00,
2013-06-06 09:52:00,62.3,61.4,30.00,SW,230,5.0,5.0,97,0.00,OVC,,0.00,WeatherDisplay:10.37,2013-06-06 13:52:00,
2013-06-06 09:57:00,62.2,61.3,30.00,South,175,0.0,0.0,97,0.00,OVC,,0.00,WeatherDisplay:10.37,2013-06-06 13:57:00,
2013-06-06 10:02:00,62.5,61.9,30.00,SSW,205,4.6,4.6,98,0.00,OVC,,0.00,WeatherDisplay:10.37,2013-06-06 14:02:00,
2013-06-06 10:07:00,62.4,61.8,29.99,East,100,3.4,3.4,98,0.00,OVC,,0.00,WeatherDisplay:10.37,2013-06-06 14:07:00,
2013-06-06 10:12:00,62.6,62.0,29.99,South,169,1.1,0.0,98,0.00,OVC,,0.00,WeatherDisplay:10.37,2013-06-06 14:12:00,
2013-06-06 10:18:00,62.6,62.0,29.99,SE,124,2.7,2.7,98,0.00,OVC,,0.00,WeatherDisplay:10.37,2013-06-06 14:18:00,
2013-06-06 10:23:00,62.6,62.0,29.98,ENE,69,0.6,0.6,98,0.00,OVC,,0.00,WeatherDisplay:10.37,2013-06-06 14:23:00,
2013-06-06 10:28:00,62.9,62.3,29.98,SSE,161,2.3,2.3,98,0.00,OVC,,0.00,WeatherDisplay:10.37,2013-06-06 14:28:00,
2013-06-06 10:33:00,63.1,62.5,29.98,SW,216,3.5,3.5,98,0.00,OVC,,0.00,WeatherDisplay:10.37,2013-06-06 14:33:00,
2013-06-06 10:38:00,63.0,62.4,29.98,SW,219,3.5,3.5,98,0.00,OVC,,0.00,WeatherDisplay:10.37,2013-06-06 14:38:00,
2013-06-06 10:43:00,63.0,62.4,29.98,South,184,3.5,3.5,98,0.00,OVC,,0.00,WeatherDisplay:10.37,2013-06-06 14:43:00,
2013-06-06 10:48:00,63.3,63.0,29.98,South,179,2.3,2.3,99,0.00,OVC,,0.00,WeatherDisplay:10.37,2013-06-06 14:48:00,
2013-06-06 10:53:00,63.3,63.0,29.99,SW,215,3.5,3.5,99,0.00,OVC,,0.00,WeatherDisplay:10.37,2013-06-06 14:53:00,
2013-06-06 10:58:00,63.4,63.1,29.98,SSW,213,3.0,3.0,99,0.00,OVC,,0.00,WeatherDisplay:10.37,2013-06-06 14:58:00,
2013-06-06 11:03:00,63.3,63.3,29.98,South,185,0.0,0.0,100,0.00,OVC,,0.00,WeatherDisplay:10.37,2013-06-06 15:03:00,
2013-06-06 11:08:00,63.6,63.6,29.98,SSW,208,3.5,3.5,100,0.00,OVC,,0.00,WeatherDisplay:10.37,2013-06-06 15:08:00,
2013-06-06 11:13:00,63.7,63.7,29.98,SSW,198,2.3,2.3,100,0.00,OVC,,0.00,WeatherDisplay:10.37,2013-06-06 15:13:00,
2013-06-06 11:18:00,64.2,64.2,29.98,SE,138,4.6,4.6,100,0.00,OVC,,0.00,WeatherDisplay:10.37,2013-06-06 15:18:00,
2013-06-06 11:23:00,64.2,64.2,29.98,SSW,192,4.6,4.6,100,0.00,OVC,,0.00,WeatherDisplay:10.37,2013-06-06 15:23:00,
2013-06-06 11:28:00,64.3,64.3,29.98,SSW,210,5.8,5.8,100,0.00,OVC,,0.00,WeatherDisplay:10.37,2013-06-06 15:28:00,
2013-06-06 11:33:00,64.3,64.3,29.98,SSW,209,5.1,5.1,100,0.00,OVC,,0.00,WeatherDisplay:10.37,2013-06-06 15:33:00,
2013-06-06 11:38:00,64.1,64.1,29.98,SSE,167,6.9,6.9,100,0.00,OVC,,0.00,WeatherDisplay:10.37,2013-06-06 15:38:00,
2013-06-06 11:43:00,64.4,64.4,29.98,South,185,7.2,7.2,100,0.00,OVC,,0.00,WeatherDisplay:10.37,2013-06-06 15:43:00,
2013-06-06 11:48:00,64.7,64.7,29.98,SSW,209,8.1,8.1,100,0.00,OVC,,0.00,WeatherDisplay:10.37,2013-06-06 15:48:00,
2013-06-06 11:53:00,65.2,65.2,29.98,SSW,212,8.7,8.7,100,0.00,OVC,,0.00,WeatherDisplay:10.37,2013-06-06 15:53:00,
2013-06-06 11:58:00,65.3,65.3,29.98,SSE,168,8.1,8.1,100,0.00,OVC,,0.00,WeatherDisplay:10.37,2013-06-06 15:58:00,
2013-06-06 12:03:00,65.6,65.6,29.98,SSW,206,6.9,6.9,100,0.00,OVC,,0.00,WeatherDisplay:10.37,2013-06-06 16:03:00,
2013-06-06 12:08:00,65.6,65.6,29.97,South,186,8.1,8.1,100,0.00,OVC,,0.00,WeatherDisplay:10.37,2013-06-06 16:08:00,
2013-06-06 12:13:00,66.0,66.0,29.97,SSW,193,8.1,8.1,100,0.00,OVC,,0.00,WeatherDisplay:10.37,2013-06-06 16:13:00,
2013-06-06 12:18:00,66.1,66.1,29.97,SSW,209,9.2,9.2,100,0.00,OVC,,0.00,WeatherDisplay:10.37,2013-06-06 16:18:00,
2013-06-06 12:23:00,66.2,66.2,29.97,SSW,200,8.1,8.1,100,0.00,OVC,,0.00,WeatherDisplay:10.37,2013-06-06 16:23:00,
2013-06-06 12:28:00,66.4,66.4,29.97,SW,236,6.7,6.7,100,0.00,OVC,,0.00,WeatherDisplay:10.37,2013-06-06 16:28:00,
2013-06-06 12:33:00,66.6,66.6,29.96,SW,232,5.2,5.2,100,0.00,OVC,,0.00,WeatherDisplay:10.37,2013-06-06 16:33:00,
2013-06-06 12:38:00,66.7,66.7,29.96,South,175,5.8,5.8,100,0.00,OVC,,0.00,WeatherDisplay:10.37,2013-06-06 16:38:00,
2013-06-06 12:43:00,66.6,66.6,29.96,SE,136,6.9,6.9,100,0.00,OVC,,0.00,WeatherDisplay:10.37,2013-06-06 16:43:00,
2013-06-06 12:48:00,66.5,66.5,29.96,SSW,203,7.3,7.3,100,0.00,OVC,,0.00,WeatherDisplay:10.37,2013-06-06 16:48:00,
2013-06-06 12:53:00,66.7,66.7,29.95,South,184,8.1,8.1,100,0.00,OVC,,0.00,WeatherDisplay:10.37,2013-06-06 16:53:00,
2013-06-06 12:58:00,66.9,66.9,29.95,South,174,8.1,8.1,100,0.00,OVC,,0.00,WeatherDisplay:10.37,2013-06-06 16:58:00,
2013-06-06 13:03:00,66.9,66.9,29.95,South,185,6.7,6.7,100,0.00,OVC,,0.00,WeatherDisplay:10.37,2013-06-06 17:03:00,
2013-06-06 13:08:00,67.1,67.1,29.95,SSW,202,5.8,5.8,100,0.00,OVC,,0.00,WeatherDisplay:10.37,2013-06-06 17:08:00,
2013-06-06 13:13:00,67.1,66.8,29.95,South,191,5.3,5.3,99,0.00,-RA,,0.00,WeatherDisplay:10.37,2013-06-06 17:13:00,
2013-06-06 13:18:00,67.0,66.7,29.95,SW,216,15.0,15.0,99,0.00,-RA,,0.00,WeatherDisplay:10.37,2013-06-06 17:18:00,
2013-06-06 13:23:00,66.9,66.6,29.95,SSW,206,15.0,15.0,99,0.01,-RA,,0.01,WeatherDisplay:10.37,2013-06-06 17:23:00,
2013-06-06 13:28:00,66.8,66.2,29.95,SSW,199,10.4,10.4,98,0.01,-RA,,0.01,WeatherDisplay:10.37,2013-06-06 17:28:00,
2013-06-06 13:33:00,66.3,66.0,29.95,SSW,203,11.5,11.5,99,0.01,-RA,,0.01,WeatherDisplay:10.37,2013-06-06 17:33:00,
2013-06-06 13:38:00,66.1,66.1,29.95,SSW,199,11.5,11.5,100,0.01,-RA,,0.01,WeatherDisplay:10.37,2013-06-06 17:38:00,
2013-06-06 13:43:00,65.8,65.8,29.95,South,189,8.1,8.1,100,0.02,-RA,,0.02,WeatherDisplay:10.37,2013-06-06 17:43:00,
2013-06-06 13:48:00,65.4,65.4,29.94,South,171,6.9,6.9,100,0.06,-RA,,0.06,WeatherDisplay:10.37,2013-06-06 17:48:00,
2013-06-06 13:53:00,65.1,65.1,29.94,South,185,4.6,4.6,100,0.06,-RA,,0.06,WeatherDisplay:10.37,2013-06-06 17:53:00,
2013-06-06 13:58:00,65.0,65.0,29.94,SSW,200,5.8,5.8,100,0.08,-RA,,0.08,WeatherDisplay:10.37,2013-06-06 17:58:00,
2013-06-06 14:03:00,64.4,64.4,29.94,SSW,202,9.2,9.2,100,0.09,RA,,0.09,WeatherDisplay:10.37,2013-06-06 18:03:00,
2013-06-06 14:08:00,64.2,64.2,29.94,SSW,198,7.0,7.0,100,0.09,RA,,0.09,WeatherDisplay:10.37,2013-06-06 18:08:00,
2013-06-06 14:13:00,63.9,63.9,29.94,SSW,202,5.8,5.8,100,0.10,RA,,0.10,WeatherDisplay:10.37,2013-06-06 18:13:00,
2013-06-06 14:18:00,63.7,63.7,29.94,South,176,5.8,5.8,100,0.10,RA,,0.11,WeatherDisplay:10.37,2013-06-06 18:18:00,
2013-06-06 14:23:00,63.7,63.7,29.94,SW,230,3.5,3.5,100,0.10,RA,,0.11,WeatherDisplay:10.37,2013-06-06 18:23:00,
2013-06-06 14:28:00,63.2,63.2,29.94,SSW,213,5.8,5.8,100,0.11,RA,,0.12,WeatherDisplay:10.37,2013-06-06 18:28:00,
2013-06-06 14:33:00,63.3,63.3,29.94,SW,234,4.6,4.6,100,0.11,RA,,0.12,WeatherDisplay:10.37,2013-06-06 18:33:00,
2013-06-06 14:38:00,63.1,63.1,29.93,SW,223,5.8,5.8,100,0.13,RA,,0.14,WeatherDisplay:10.37,2013-06-06 18:38:00,
2013-06-06 14:43:00,63.1,63.1,29.94,SSW,202,6.9,6.9,100,0.13,RA,,0.15,WeatherDisplay:10.37,2013-06-06 18:43:00,
2013-06-06 14:48:00,63.2,63.2,29.94,SW,232,5.8,5.8,100,0.10,RA,,0.16,WeatherDisplay:10.37,2013-06-06 18:48:00,
2013-06-06 14:53:00,63.1,63.1,29.93,SE,130,4.6,4.6,100,0.11,RA,,0.17,WeatherDisplay:10.37,2013-06-06 18:53:00,
2013-06-06 14:58:00,62.9,62.9,29.93,SW,223,3.5,3.5,100,0.10,RA,,0.18,WeatherDisplay:10.37,2013-06-06 18:58:00,
2013-06-06 15:03:00,62.8,62.8,29.93,SSW,192,4.6,4.6,100,0.10,-RA,,0.20,WeatherDisplay:10.37,2013-06-06 19:03:00,
2013-06-06 15:08:00,63.0,63.0,29.93,South,172,0.0,0.0,100,0.12,-RA,,0.21,WeatherDisplay:10.37,2013-06-06 19:08:00,
2013-06-06 15:13:00,62.8,62.8,29.93,SSW,192,1.1,0.0,100,0.12,-RA,,0.22,WeatherDisplay:10.37,2013-06-06 19:13:00,
2013-06-06 15:18:00,62.9,62.9,29.93,South,169,0.0,0.0,100,0.13,-RA,,0.23,WeatherDisplay:10.37,2013-06-06 19:18:00,
2013-06-06 15:23:00,62.9,62.9,29.93,South,169,0.0,0.0,100,0.13,-RA,,0.24,WeatherDisplay:10.37,2013-06-06 19:23:00,
2013-06-06 15:28:00,62.8,62.8,29.93,SE,141,2.3,2.3,100,0.14,-RA,,0.26,WeatherDisplay:10.37,2013-06-06 19:28:00,
2013-06-06 15:33:00,62.7,62.7,29.93,SSW,193,3.5,3.5,100,0.15,-RA,,0.27,WeatherDisplay:10.37,2013-06-06 19:33:00,
2013-06-06 15:34:00,62.7,62.7,29.93,SSE,161,2.3,2.3,100,0.14,-RA,,0.29,WeatherDisplay:10.37,2013-06-06 19:34:00,
2013-06-06 15:39:00,62.6,62.6,29.93,SSW,208,2.1,2.1,100,0.17,-RA,,0.31,WeatherDisplay:10.37,2013-06-06 19:39:00,
2013-06-06 15:44:00,62.6,62.6,29.93,SW,220,1.1,1.1,100,0.16,-RA,,0.31,WeatherDisplay:10.37,2013-06-06 19:44:00,
2013-06-06 15:49:00,62.5,62.5,29.92,SW,222,2.3,2.3,100,0.16,-RA,,0.32,WeatherDisplay:10.37,2013-06-06 19:49:00,
2013-06-06 15:54:00,62.7,62.7,29.92,SW,224,4.3,4.3,100,0.16,-RA,,0.33,WeatherDisplay:10.37,2013-06-06 19:54:00,
2013-06-06 15:59:00,62.4,62.4,29.93,WSW,237,4.6,4.6,100,0.15,-RA,,0.34,WeatherDisplay:10.37,2013-06-06 19:59:00,
2013-06-06 16:04:00,62.5,62.5,29.93,SW,224,0.0,0.0,100,0.18,-RA,,0.39,WeatherDisplay:10.37,2013-06-06 20:04:00,
2013-06-06 16:09:00,62.5,62.5,29.92,SW,224,0.0,0.0,100,0.20,-RA,,0.41,WeatherDisplay:10.37,2013-06-06 20:09:00,
2013-06-06 16:14:00,62.5,62.5,29.92,SW,224,0.0,0.0,100,0.20,-RA,,0.42,WeatherDisplay:10.37,2013-06-06 20:14:00,
2013-06-06 16:19:00,62.5,62.5,29.92,South,181,2.3,2.3,100,0.20,-RA,,0.43,WeatherDisplay:10.37,2013-06-06 20:19:00,
2013-06-06 16:24:00,62.5,62.5,29.92,South,172,0.0,0.0,100,0.18,-RA,,0.43,WeatherDisplay:10.37,2013-06-06 20:24:00,
2013-06-06 16:29:00,62.8,62.8,29.92,SW,216,2.4,2.4,100,0.18,-RA,,0.44,WeatherDisplay:10.37,2013-06-06 20:29:00,
2013-06-06 16:34:00,62.7,62.7,29.92,SW,215,0.0,0.0,100,0.17,-RA,,0.44,WeatherDisplay:10.37,2013-06-06 20:34:00,
2013-06-06 16:39:00,62.7,62.7,29.92,SW,215,0.0,0.0,100,0.14,-RA,,0.45,WeatherDisplay:10.37,2013-06-06 20:39:00,
2013-06-06 16:44:00,63.0,63.0,29.92,SW,215,0.0,0.0,100,0.15,-RA,,0.46,WeatherDisplay:10.37,2013-06-06 20:44:00,
2013-06-06 16:49:00,63.1,63.1,29.92,SW,215,0.0,0.0,100,0.15,-RA,,0.47,WeatherDisplay:10.37,2013-06-06 20:49:00,
2013-06-06 16:54:00,63.3,63.3,29.91,NE,35,2.3,2.3,100,0.15,-RA,,0.48,WeatherDisplay:10.37,2013-06-06 20:54:00,
2013-06-06 16:59:00,63.1,63.1,29.91,NE,37,2.3,2.3,100,0.15,-RA,,0.49,WeatherDisplay:10.37,2013-06-06 20:59:00,
2013-06-06 17:04:00,63.1,63.1,29.91,NNE,21,0.0,0.0,100,0.12,-RA,,0.50,WeatherDisplay:10.37,2013-06-06 21:04:00,
2013-06-06 17:09:00,62.9,62.9,29.91,NNE,21,0.0,0.0,100,0.10,-RA,,0.52,WeatherDisplay:10.37,2013-06-06 21:09:00,
2013-06-06 17:14:00,63.0,63.0,29.91,NNE,21,0.0,0.0,100,0.11,-RA,,0.53,WeatherDisplay:10.37,2013-06-06 21:14:00,
2013-06-06 17:19:00,63.1,63.1,29.91,NNE,21,0.0,0.0,100,0.11,-RA,,0.54,WeatherDisplay:10.37,2013-06-06 21:19:00,
2013-06-06 17:24:00,62.9,62.9,29.91,NNE,21,0.0,0.0,100,0.11,-RA,,0.55,WeatherDisplay:10.37,2013-06-06 21:24:00,
2013-06-06 17:29:00,63.0,63.0,29.91,NNE,21,0.0,0.0,100,0.12,-RA,,0.56,WeatherDisplay:10.37,2013-06-06 21:29:00,
2013-06-06 17:34:00,63.0,63.0,29.91,NNE,21,0.0,0.0,100,0.12,-RA,,0.56,WeatherDisplay:10.37,2013-06-06 21:34:00,
2013-06-06 17:39:00,62.9,62.9,29.91,NE,51,0.0,0.0,100,0.12,-RA,,0.57,WeatherDisplay:10.37,2013-06-06 21:39:00,
2013-06-06 17:44:00,63.0,63.0,29.90,NE,51,0.0,0.0,100,0.11,-RA,,0.57,WeatherDisplay:10.37,2013-06-06 21:44:00,
2013-06-06 17:49:00,63.0,63.0,29.90,ENE,58,0.0,0.0,100,0.10,-RA,,0.57,WeatherDisplay:10.37,2013-06-06 21:49:00,
2013-06-06 17:54:00,63.0,63.0,29.90,South,181,0.0,0.0,100,0.10,-RA,,0.58,WeatherDisplay:10.37,2013-06-06 21:54:00,
2013-06-06 17:59:00,62.8,62.8,29.90,NNW,335,3.5,3.5,100,0.09,-RA,,0.58,WeatherDisplay:10.37,2013-06-06 21:59:00,
2013-06-06 18:04:00,63.3,63.3,29.90,NE,34,2.3,2.3,100,0.09,RA,,0.59,WeatherDisplay:10.37,2013-06-06 22:04:00,
2013-06-06 18:09:00,63.4,63.4,29.89,SE,124,5.8,5.8,100,0.09,RA,,0.60,WeatherDisplay:10.37,2013-06-06 22:09:00,
2013-06-06 18:14:00,63.5,63.5,29.89,NNW,347,1.7,1.7,100,0.09,RA,,0.62,WeatherDisplay:10.37,2013-06-06 22:14:00,
2013-06-06 18:19:00,63.5,63.5,29.89,SE,137,3.5,3.5,100,0.09,RA,,0.63,WeatherDisplay:10.37,2013-06-06 22:19:00,
2013-06-06 18:24:00,63.6,63.6,29.89,NE,35,1.1,0.0,100,0.09,RA,,0.64,WeatherDisplay:10.37,2013-06-06 22:24:00,
2013-06-06 18:29:00,63.6,63.6,29.89,NE,34,3.4,3.4,100,0.08,RA,,0.65,WeatherDisplay:10.37,2013-06-06 22:29:00,
2013-06-06 18:34:00,63.7,63.7,29.89,NNE,13,6.0,6.0,100,0.10, +RA,,0.66,WeatherDisplay:10.37,2013-06-06 22:34:00,
2013-06-06 18:39:00,63.4,63.4,29.89,SSW,193,6.9,6.9,100,0.10, +RA,,0.67,WeatherDisplay:10.37,2013-06-06 22:39:00,
2013-06-06 18:44:00,63.6,63.6,29.89,ESE,112,6.0,6.0,100,0.11, +RA,,0.69,WeatherDisplay:10.37,2013-06-06 22:44:00,
2013-06-06 18:49:00,63.6,63.6,29.89,SE,126,3.5,3.5,100,0.13, +RA,,0.70,WeatherDisplay:10.37,2013-06-06 22:49:00,
2013-06-06 18:54:00,63.5,63.5,29.89,SSW,198,1.6,0.0,100,0.12, +RA,,0.70,WeatherDisplay:10.37,2013-06-06 22:54:00,
2013-06-06 18:59:00,63.6,63.6,29.89,SE,143,3.5,3.5,100,0.12, +RA,,0.70,WeatherDisplay:10.37,2013-06-06 22:59:00,
2013-06-06 19:04:00,63.6,63.6,29.88,East,95,1.1,0.0,100,0.12, +RA,,0.71,WeatherDisplay:10.37,2013-06-06 23:04:00,
2013-06-06 19:09:00,63.5,63.5,29.88,ESE,107,1.1,0.0,100,0.12, +RA,,0.72,WeatherDisplay:10.37,2013-06-06 23:09:00,
2013-06-06 19:14:00,63.5,63.5,29.89,ESE,103,0.0,0.0,100,0.10,RA,,0.72,WeatherDisplay:10.37,2013-06-06 23:14:00,
2013-06-06 19:19:00,63.6,63.6,29.89,SW,224,0.0,0.0,100,0.09,OVC,,0.72,WeatherDisplay:10.37,2013-06-06 23:19:00,
2013-06-06 19:24:00,63.6,63.6,29.89,SW,224,0.0,0.0,100,0.09,OVC,,0.72,WeatherDisplay:10.37,2013-06-06 23:24:00,
2013-06-06 19:29:00,63.7,63.7,29.88,SW,224,0.0,0.0,100,0.08,OVC,,0.72,WeatherDisplay:10.37,2013-06-06 23:29:00,
2013-06-06 19:34:00,63.6,63.6,29.88,SW,224,0.0,0.0,100,0.07,RA,,0.73,WeatherDisplay:10.37,2013-06-06 23:34:00,
2013-06-06 19:39:00,63.6,63.6,29.88,SSE,150,0.0,0.0,100,0.06,RA,,0.73,WeatherDisplay:10.37,2013-06-06 23:39:00,
2013-06-06 19:44:00,63.5,63.5,29.88,SSE,150,0.0,0.0,100,0.05,OVC,,0.73,WeatherDisplay:10.37,2013-06-06 23:44:00,
2013-06-06 19:49:00,63.7,63.7,29.88,SE,127,0.0,0.0,100,0.03,OVC,,0.73,WeatherDisplay:10.37,2013-06-06 23:49:00,
2013-06-06 19:54:00,63.8,63.8,29.88,South,174,2.3,2.3,100,0.03,OVC,,0.73,WeatherDisplay:10.37,2013-06-06 23:54:00,
2013-06-06 19:59:00,63.6,63.6,29.88,South,179,0.0,0.0,100,0.03,OVC,,0.73,WeatherDisplay:10.37,2013-06-06 23:59:00,
2013-06-06 20:04:00,63.6,63.6,29.88,South,175,4.0,4.0,100,0.02,-RA,,0.73,WeatherDisplay:10.37,2013-06-07 00:04:00,
2013-06-06 20:09:00,63.7,63.7,29.88,ESE,112,0.0,0.1,100,0.01,-RA,,0.73,WeatherDisplay:10.37,2013-06-07 00:09:00,
2013-06-06 20:14:00,63.6,63.6,29.88,SSE,161,1.1,1.1,100,0.01,-RA,,0.73,WeatherDisplay:10.37,2013-06-07 00:14:00,
2013-06-06 20:19:00,63.7,63.7,29.88,ENE,72,0.0,0.0,100,0.01,-RA,,0.73,WeatherDisplay:10.37,2013-06-07 00:19:00,
2013-06-06 20:24:00,63.5,63.5,29.88,ENE,72,0.0,0.0,100,0.01,-RA,,0.73,WeatherDisplay:10.37,2013-06-07 00:24:00,
2013-06-06 20:29:00,63.7,63.7,29.88,ENE,72,0.0,0.0,100,0.02,-RA,,0.74,WeatherDisplay:10.37,2013-06-07 00:29:00,
2013-06-06 20:34:00,63.5,63.5,29.89,WSW,240,2.3,2.3,100,0.01,-RA,,0.74,WeatherDisplay:10.37,2013-06-07 00:34:00,
2013-06-06 20:39:00,63.3,63.3,29.89,SSW,212,2.3,2.3,100,0.01,-RA,,0.74,WeatherDisplay:10.37,2013-06-07 00:39:00,
2013-06-06 20:44:00,62.9,62.9,29.89,SSW,210,4.6,4.6,100,0.01,-RA,,0.74,WeatherDisplay:10.37,2013-06-07 00:44:00,
2013-06-06 20:49:00,63.0,63.0,29.88,SW,215,6.9,6.9,100,0.01,-RA,,0.74,WeatherDisplay:10.37,2013-06-07 00:49:00,
2013-06-06 20:54:00,62.8,62.8,29.88,South,189,4.6,4.6,100,0.01,-RA,,0.74,WeatherDisplay:10.37,2013-06-07 00:54:00,
2013-06-06 20:59:00,63.0,63.0,29.88,South,174,2.3,2.3,100,0.01,-RA,,0.74,WeatherDisplay:10.37,2013-06-07 00:59:00,
2013-06-06 21:04:00,62.7,62.7,29.88,South,178,3.5,3.5,100,0.01,-RA,,0.74,WeatherDisplay:10.37,2013-06-07 01:04:00,
2013-06-06 21:09:00,62.7,62.7,29.88,SW,219,3.9,3.9,100,0.01,-RA,,0.74,WeatherDisplay:10.37,2013-06-07 01:09:00,
2013-06-06 21:14:00,62.8,62.8,29.87,SSW,192,4.6,4.7,100,0.01,-RA,,0.74,WeatherDisplay:10.37,2013-06-07 01:14:00,
2013-06-06 21:19:00,62.5,62.5,29.88,WSW,240,3.5,3.5,100,0.02,-RA,,0.75,WeatherDisplay:10.37,2013-06-07 01:19:00,
2013-06-06 21:24:00,62.5,62.5,29.88,SSE,151,4.6,4.6,100,0.02,RA,,0.75,WeatherDisplay:10.37,2013-06-07 01:24:00,
2013-06-06 21:29:00,62.4,62.4,29.89,South,189,3.5,3.5,100,0.01,OVC,,0.75,WeatherDisplay:10.37,2013-06-07 01:29:00,
2013-06-06 21:34:00,62.3,62.3,29.89,SW,216,4.6,4.6,100,0.01,OVC,,0.75,WeatherDisplay:10.37,2013-06-07 01:34:00,
2013-06-06 21:39:00,62.3,62.3,29.89,SSE,150,4.6,4.6,100,0.01,OVC,,0.75,WeatherDisplay:10.37,2013-06-07 01:39:00,
2013-06-06 21:44:00,62.3,62.3,29.89,SSW,200,3.9,3.9,100,0.01,OVC,,0.75,WeatherDisplay:10.37,2013-06-07 01:44:00,
2013-06-06 21:49:00,62.0,62.0,29.89,SSE,164,4.6,0.0,100,0.02,RA,,0.76,WeatherDisplay:10.37,2013-06-07 01:49:00,
2013-06-06 21:54:00,62.1,62.1,29.89,SSE,148,2.3,0.0,100,0.02,RA,,0.76,WeatherDisplay:10.37,2013-06-07 01:54:00,
2013-06-06 21:59:00,62.0,62.0,29.89,SSW,212,2.9,2.9,100,0.02,OVC,,0.76,WeatherDisplay:10.37,2013-06-07 01:59:00,
2013-06-06 22:04:00,62.0,62.0,29.89,SSE,148,5.8,0.0,100,0.02,OVC,,0.76,WeatherDisplay:10.37,2013-06-07 02:04:00,
2013-06-06 22:09:00,61.7,61.7,29.89,SSW,200,4.6,4.6,100,0.02,OVC,,0.76,WeatherDisplay:10.37,2013-06-07 02:09:00,
2013-06-06 22:14:00,61.7,61.7,29.89,SSW,212,6.9,6.9,100,0.02,OVC,,0.76,WeatherDisplay:10.37,2013-06-07 02:14:00,
2013-06-06 22:19:00,61.5,61.5,29.89,WSW,239,4.6,4.6,100,0.01,OVC,,0.77,WeatherDisplay:10.37,2013-06-07 02:19:00,
2013-06-06 22:24:00,61.1,61.1,29.89,SW,233,6.5,6.5,100,0.02,RA,,0.77,WeatherDisplay:10.37,2013-06-07 02:24:00,
2013-06-06 22:29:00,61.0,61.0,29.89,SSW,200,4.6,4.6,100,0.02,RA,,0.77,WeatherDisplay:10.37,2013-06-07 02:29:00,
2013-06-06 22:34:00,61.0,61.0,29.89,WSW,240,3.5,3.5,100,0.02,OVC,,0.77,WeatherDisplay:10.37,2013-06-07 02:34:00,
2013-06-06 22:39:00,61.0,61.0,29.89,SSW,199,0.0,0.0,100,0.03,RA,,0.78,WeatherDisplay:10.37,2013-06-07 02:39:00,
2013-06-06 22:44:00,60.6,60.6,29.89,South,176,4.6,4.6,100,0.03,RA,,0.78,WeatherDisplay:10.37,2013-06-07 02:44:00,
2013-06-06 22:49:00,60.5,60.5,29.88,SSE,150,0.0,0.0,100,0.02,OVC,,0.78,WeatherDisplay:10.37,2013-06-07 02:49:00,
2013-06-06 22:54:00,60.4,60.4,29.88,SSE,160,3.5,3.5,100,0.03,-RA,,0.79,WeatherDisplay:10.37,2013-06-07 02:54:00,
2013-06-06 22:59:00,60.3,60.3,29.88,South,191,3.5,0.0,100,0.04,-RA,,0.80,WeatherDisplay:10.37,2013-06-07 02:59:00,
2013-06-06 23:04:00,60.4,60.4,29.88,SSW,199,3.5,3.5,100,0.04,-RA,,0.80,WeatherDisplay:10.37,2013-06-07 03:04:00,
2013-06-06 23:09:00,60.3,60.3,29.88,SSE,151,4.6,0.0,100,0.05,-RA,,0.81,WeatherDisplay:10.37,2013-06-07 03:09:00,
2013-06-06 23:14:00,60.2,60.2,29.88,South,179,3.5,0.0,100,0.06,-DZ,,0.82,WeatherDisplay:10.37,2013-06-07 03:14:00,
2013-06-06 23:19:00,60.3,60.3,29.88,South,186,0.0,0.0,100,0.06,-DZ,,0.82,WeatherDisplay:10.37,2013-06-07 03:19:00,
2013-06-06 23:24:00,60.3,60.3,29.88,South,186,0.0,0.0,100,0.05,-DZ,,0.82,WeatherDisplay:10.37,2013-06-07 03:24:00,
2013-06-06 23:29:00,60.4,60.4,29.88,South,186,0.0,0.0,100,0.05,-DZ,,0.82,WeatherDisplay:10.37,2013-06-07 03:29:00,
2013-06-06 23:34:00,60.2,60.2,29.87,South,186,0.0,0.0,100,0.05, +RA,,0.82,WeatherDisplay:10.37,2013-06-07 03:34:00,
2013-06-06 23:39:00,60.4,60.4,29.87,South,191,1.1,1.1,100,0.04, +RA,,0.82,WeatherDisplay:10.37,2013-06-07 03:39:00,
2013-06-06 23:44:00,60.5,60.5,29.86,South,191,0.0,0.0,100,0.04, +RA,,0.82,WeatherDisplay:10.37,2013-06-07 03:44:00,
2013-06-06 23:49:00,60.5,60.5,29.86,South,191,0.0,0.0,100,0.04, +RA,,0.82,WeatherDisplay:10.37,2013-06-07 03:49:00,
2013-06-06 23:54:00,60.6,60.6,29.86,South,191,0.0,0.0,100,0.03,OVC,,0.82,WeatherDisplay:10.37,2013-06-07 03:54:00,
2013-06-06 23:59:00,60.6,60.6,29.86,South,191,0.0,0.0,100,0.02,OVC,,0.82,WeatherDisplay:10.37,2013-06-07 03:59:00,